createdAt,value
2023-02-22T00:01:35.478Z,100305.25
2023-02-22T00:04:42.067Z,100316.97
2023-02-22T00:07:50.837Z,100323.22
2023-02-22T00:10:53.533Z,100333.38
2023-02-22T00:13:59.116Z,100329.28
2023-02-22T00:17:02.561Z,100329.66
2023-02-22T00:20:08.461Z,100328.94
2023-02-22T00:23:20.963Z,100317.41
2023-02-22T00:26:23.850Z,100306.78
2023-02-22T00:29:26.808Z,100331.16
2023-02-22T00:32:29.685Z,100323.50
2023-02-22T00:35:34.125Z,100328.44
2023-02-22T00:38:37.393Z,100338.41
2023-02-22T00:41:40.208Z,100327.59
2023-02-22T00:44:43.200Z,100340.25
2023-02-22T00:47:48.805Z,100339.53
2023-02-22T00:50:55.222Z,100339.53
2023-02-22T00:54:08.788Z,100314.38
2023-02-22T00:57:12.442Z,100330.84
2023-02-22T01:00:42.936Z,100333.63
2023-02-22T01:03:47.697Z,100334.84
2023-02-22T01:06:54.423Z,100334.84
2023-02-22T01:09:57.747Z,100323.94
2023-02-22T01:13:01.409Z,100327.94
2023-02-22T01:16:11.567Z,100321.13
2023-02-22T01:19:14.407Z,100321.53
2023-02-22T01:22:17.092Z,100311.97
2023-02-22T01:25:23.020Z,100305.09
2023-02-22T01:28:25.592Z,100298.88
2023-02-22T01:31:28.235Z,100310.81
2023-02-22T01:34:33.942Z,100313.13
2023-02-22T01:37:37.852Z,100319.28
2023-02-22T01:40:48.179Z,100308.47
2023-02-22T01:43:50.825Z,100313.50
2023-02-22T01:46:55.784Z,100318.97
2023-02-22T01:50:04.416Z,100320.41
2023-02-22T01:53:15.135Z,100318.84
2023-02-22T01:56:19.106Z,100303.31
2023-02-22T01:59:22.203Z,100306.13
2023-02-22T02:02:25.538Z,100308.03
2023-02-22T02:05:31.912Z,100303.78
2023-02-22T02:08:53.443Z,100307.06
2023-02-22T02:11:56.819Z,100314.69
2023-02-22T02:15:21.213Z,100304.06
2023-02-22T02:18:24.885Z,100304.59
2023-02-22T02:21:55.884Z,100280.19
2023-02-22T02:25:05.314Z,100297.59
2023-02-22T02:28:39.556Z,100292.25
2023-02-22T02:32:16.075Z,100289.03
2023-02-22T02:35:56.088Z,100292.91
2023-02-22T02:39:16.957Z,100307.53
2023-02-22T02:42:24.762Z,100289.31
2023-02-22T02:45:45.778Z,100298.84
2023-02-22T02:48:57.018Z,100293.34
2023-02-22T02:52:02.909Z,100270.16
2023-02-22T02:55:09.315Z,100294.81
2023-02-22T02:58:21.203Z,100278.56
2023-02-22T03:01:54.303Z,100284.41
2023-02-22T03:05:20.132Z,100304.31
2023-02-22T03:08:43.355Z,100303.59
2023-02-22T03:11:53.537Z,100303.59
2023-02-22T03:15:26.663Z,100309.03
2023-02-22T03:18:48.051Z,100309.19
2023-02-22T03:22:28.268Z,100320.88
2023-02-22T03:25:37.583Z,100317.84
2023-02-22T03:28:42.845Z,100281.94
2023-02-22T03:31:53.704Z,100317.41
2023-02-22T03:35:09.833Z,100296.78
2023-02-22T03:38:15.721Z,100322.91
2023-02-22T03:41:24.193Z,100316.97
2023-02-22T03:44:32.352Z,100321.19
2023-02-22T03:47:42.918Z,100326.94
2023-02-22T03:50:45.836Z,100294.31
2023-02-22T03:53:52.351Z,100328.75
2023-02-22T03:57:18.250Z,100328.97
2023-02-22T04:00:25.364Z,100320.50
2023-02-22T04:03:27.979Z,100298.25
2023-02-22T04:06:31.263Z,100324.25
2023-02-22T04:09:38.157Z,100321.09
2023-02-22T04:12:43.942Z,100322.28
2023-02-22T04:15:46.610Z,100322.91
2023-02-22T04:18:51.287Z,100330.66
2023-02-22T04:21:55.872Z,100338.41
2023-02-22T04:25:01.189Z,100343.03
2023-02-22T04:28:04.207Z,100330.13
2023-02-22T04:31:14.254Z,100332.44
2023-02-22T04:34:17.244Z,100324.06
2023-02-22T04:37:20.118Z,100338.03
2023-02-22T04:40:22.859Z,100331.84
2023-02-22T04:43:25.644Z,100331.72
2023-02-22T04:46:32.944Z,100331.44
2023-02-22T04:49:38.052Z,100323.25
2023-02-22T04:52:41.586Z,100341.41
2023-02-22T04:55:49.626Z,100325.88
2023-02-22T04:58:52.990Z,100313.38
2023-02-22T05:01:55.648Z,100325.97
2023-02-22T05:04:58.324Z,100328.47
2023-02-22T05:08:01.078Z,100325.44
2023-02-22T05:11:05.239Z,100338.53
2023-02-22T05:14:07.969Z,100340.03
2023-02-22T05:17:13.581Z,100337.75
2023-02-22T05:20:36.796Z,100335.63
2023-02-22T05:23:39.555Z,100338.72
2023-02-22T05:26:45.624Z,100338.13
2023-02-22T05:29:48.191Z,100345.34
2023-02-22T05:32:52.360Z,100351.88
2023-02-22T05:35:58.015Z,100350.00
2023-02-22T05:39:00.641Z,100339.72
2023-02-22T05:42:04.853Z,100355.50
2023-02-22T05:45:19.094Z,100347.31
2023-02-22T05:48:22.697Z,100359.41
2023-02-22T05:51:27.779Z,100360.22
2023-02-22T05:54:30.292Z,100346.63
2023-02-22T05:57:32.786Z,100340.16
2023-02-22T06:00:40.705Z,100358.38
2023-02-22T06:03:43.308Z,100351.53
2023-02-22T06:06:46.007Z,100356.78
2023-02-22T06:09:51.719Z,100363.38
2023-02-22T06:12:55.347Z,100350.00
2023-02-22T06:16:00.045Z,100366.81
2023-02-22T06:19:03.015Z,100376.06
2023-02-22T06:22:05.614Z,100378.69
2023-02-22T06:25:09.710Z,100378.94
2023-02-22T06:28:12.304Z,100379.63
2023-02-22T06:31:15.718Z,100375.25
2023-02-22T06:34:18.975Z,100390.56
2023-02-22T06:37:22.017Z,100398.72
2023-02-22T06:40:29.527Z,100407.22
2023-02-22T06:43:32.217Z,100413.75
2023-02-22T06:46:35.265Z,100405.16
2023-02-22T06:49:37.896Z,100414.66
2023-02-22T06:52:48.043Z,100408.50
2023-02-22T06:55:53.296Z,100421.44
2023-02-22T06:59:23.666Z,100417.91
2023-02-22T07:02:34.809Z,100423.09
2023-02-22T07:05:38.437Z,100436.84
2023-02-22T07:08:50.710Z,100427.56
2023-02-22T07:11:58.910Z,100429.28
2023-02-22T07:15:01.779Z,100417.91
2023-02-22T07:18:05.014Z,100430.22
2023-02-22T07:21:10.858Z,100435.06
2023-02-22T07:24:13.462Z,100428.03
2023-02-22T07:27:16.118Z,100429.41
2023-02-22T07:30:25.476Z,100427.84
2023-02-22T07:33:29.495Z,100429.91
2023-02-22T07:36:32.125Z,100417.84
2023-02-22T07:39:42.240Z,100425.91
2023-02-22T07:43:14.399Z,100418.41
2023-02-22T07:46:17.008Z,100414.88
2023-02-22T07:49:19.637Z,100424.31
2023-02-22T07:52:22.663Z,100428.28
2023-02-22T07:55:28.048Z,100397.53
2023-02-22T07:58:31.460Z,100408.63
2023-02-22T08:01:35.287Z,100406.44
2023-02-22T08:04:42.631Z,100409.72
2023-02-22T08:07:45.379Z,100407.91
2023-02-22T08:10:49.706Z,100411.97
2023-02-22T08:13:52.441Z,100404.06
2023-02-22T08:16:54.997Z,100394.66
2023-02-22T08:19:58.304Z,100393.41
2023-02-22T08:23:01.750Z,100390.09
2023-02-22T08:26:09.581Z,100398.56
2023-02-22T08:29:14.850Z,100391.41
2023-02-22T08:32:19.676Z,100388.53
2023-02-22T08:35:23.311Z,100388.88
2023-02-22T08:38:29.788Z,100394.56
2023-02-22T08:41:35.260Z,100381.19
2023-02-22T08:44:39.223Z,100393.66
2023-02-22T08:47:42.170Z,100389.22
2023-02-22T08:50:44.806Z,100393.50
2023-02-22T08:53:47.458Z,100389.13
2023-02-22T08:56:50.276Z,100385.72
2023-02-22T08:59:53.544Z,100405.22
2023-02-22T09:02:56.291Z,100394.06
2023-02-22T09:05:59.767Z,100399.34
2023-02-22T09:09:05.113Z,100405.31
2023-02-22T09:12:07.999Z,100398.63
2023-02-22T09:15:11.596Z,100392.88
2023-02-22T09:18:14.840Z,100400.34
2023-02-22T09:21:20.663Z,100396.63
2023-02-22T09:24:23.418Z,100394.09
2023-02-22T09:27:28.386Z,100403.97
2023-02-22T09:30:38.520Z,100389.03
2023-02-22T09:33:42.044Z,100392.84
2023-02-22T09:36:48.221Z,100389.22
2023-02-22T09:39:51.464Z,100383.75
2023-02-22T09:43:02.416Z,100383.28
2023-02-22T09:50:22.569Z,100391.88
2023-02-22T09:53:42.284Z,100388.28
2023-02-22T09:56:48.892Z,100374.22
2023-02-22T10:00:16.173Z,100383.88
2023-02-22T10:03:47.599Z,100359.41
2023-02-22T10:07:20.655Z,100365.81
2023-02-22T10:10:34.200Z,100377.22
2023-02-22T10:13:55.655Z,100367.25
2023-02-22T10:17:19.849Z,100363.63
2023-02-22T10:21:02.523Z,100375.97
2023-02-22T10:24:31.240Z,100370.94
2023-02-22T10:27:41.092Z,100366.03
2023-02-22T10:30:54.806Z,100359.19
2023-02-22T10:34:07.428Z,100356.66
2023-02-22T10:37:33.994Z,100362.00
2023-02-22T10:40:45.268Z,100319.31
2023-02-22T10:43:47.837Z,100355.59
2023-02-22T10:46:53.560Z,100353.59
2023-02-22T10:49:58.781Z,100328.66
2023-02-22T10:53:01.318Z,100345.75
2023-02-22T10:56:19.172Z,100347.75
2023-02-22T10:59:28.190Z,100338.41
2023-02-22T11:02:36.029Z,100329.44
2023-02-22T11:05:40.889Z,100296.69
2023-02-22T11:08:43.800Z,100327.38
2023-02-22T11:11:48.258Z,100328.72
2023-02-22T11:14:53.712Z,100300.16
2023-02-22T11:18:02.159Z,100312.78
2023-02-22T11:21:10.373Z,100306.50
2023-02-22T11:24:14.671Z,100279.75
2023-02-22T11:27:40.366Z,100304.69
2023-02-22T11:30:44.741Z,100303.59
2023-02-22T11:33:58.782Z,100294.53
2023-02-22T11:37:30.904Z,100292.22
2023-02-22T11:40:35.717Z,100298.19
2023-02-22T11:43:38.336Z,100293.59
2023-02-22T11:46:44.967Z,100281.31
2023-02-22T11:49:55.651Z,100299.59
2023-02-22T11:53:18.152Z,100288.97
2023-02-22T11:56:37.782Z,100284.59
2023-02-22T12:00:16.441Z,100281.03
2023-02-22T12:04:09.486Z,100277.63
2023-02-22T12:07:22.589Z,100278.75
2023-02-22T12:10:58.847Z,100280.75
2023-02-22T12:14:08.984Z,100267.19
2023-02-22T12:17:23.921Z,100267.63
2023-02-22T12:20:40.175Z,100241.97
2023-02-22T12:24:39.157Z,100259.50
2023-02-22T12:27:50.011Z,100242.06
2023-02-22T12:31:12.311Z,100251.53
2023-02-22T12:34:36.737Z,100248.53
2023-02-22T12:38:01.023Z,100219.69
2023-02-22T12:41:27.086Z,100244.50
2023-02-22T12:44:37.162Z,100235.56
2023-02-22T12:48:18.759Z,100215.69
2023-02-22T12:51:36.775Z,100236.66
2023-02-22T12:54:59.525Z,100228.81
2023-02-22T12:58:46.939Z,100239.78
2023-02-22T13:02:04.005Z,100214.81
2023-02-22T13:05:18.156Z,100227.22
2023-02-22T13:08:29.512Z,100223.72
2023-02-22T13:11:46.841Z,100226.66
2023-02-22T13:15:43.564Z,100205.84
2023-02-22T13:19:18.131Z,100228.34
2023-02-22T13:22:46.893Z,100203.56
2023-02-22T13:25:58.991Z,100222.81
2023-02-22T13:29:30.178Z,100208.50
2023-02-22T13:32:56.301Z,100229.88
2023-02-22T13:36:31.372Z,100212.66
2023-02-22T13:39:56.541Z,100226.38
2023-02-22T13:43:43.797Z,100220.44
2023-02-22T13:47:06.786Z,100221.78
2023-02-22T13:50:32.516Z,100219.06
2023-02-22T13:53:55.533Z,100220.00
2023-02-22T13:57:03.348Z,100194.94
2023-02-22T14:00:15.153Z,100206.47
2023-02-22T14:03:50.593Z,100211.13
2023-02-22T14:06:57.471Z,100211.72
2023-02-22T14:10:03.073Z,100208.19
2023-02-22T14:13:07.897Z,100193.63
2023-02-22T14:16:13.138Z,100200.69
2023-02-22T14:19:24.206Z,100184.72
2023-02-22T14:22:33.719Z,100190.13
2023-02-22T14:25:46.166Z,100189.69
2023-02-22T14:28:54.599Z,100189.63
2023-02-22T14:32:21.155Z,100189.13
2023-02-22T14:35:54.001Z,100121.75
2023-02-22T14:39:24.476Z,100184.28
2023-02-22T14:42:34.929Z,100192.06
2023-02-22T14:45:45.620Z,100185.28
2023-02-22T14:48:52.921Z,100169.31
2023-02-22T14:52:04.136Z,100186.53
2023-02-22T14:55:22.298Z,100176.22
2023-02-22T14:58:32.302Z,100167.41
2023-02-22T15:01:52.733Z,100185.16
2023-02-22T15:04:58.198Z,100164.94
2023-02-22T15:08:03.294Z,100181.94
2023-02-22T15:11:08.311Z,100180.84
2023-02-22T15:14:27.058Z,100183.97
2023-02-22T15:17:29.827Z,100156.34
2023-02-22T15:20:36.936Z,100175.69
2023-02-22T15:23:54.597Z,100175.19
2023-02-22T15:27:06.091Z,100164.38
2023-02-22T15:30:17.819Z,100166.31
2023-02-22T15:33:27.007Z,100156.84
2023-02-22T15:36:32.385Z,100144.63
2023-02-22T15:39:34.931Z,100171.31
2023-02-22T15:42:48.786Z,100163.88
2023-02-22T15:45:52.257Z,100163.38
2023-02-22T15:49:29.065Z,100165.69
2023-02-22T15:52:34.507Z,100167.53
2023-02-22T15:55:43.188Z,100157.31
2023-02-22T15:58:47.731Z,100157.88
2023-02-22T16:01:53.471Z,100157.47
2023-02-22T16:05:06.764Z,100133.81
2023-02-22T16:08:45.806Z,100161.72
2023-02-22T16:12:29.953Z,100159.38
2023-02-22T16:15:33.447Z,100174.41
2023-02-22T16:18:38.718Z,100168.66
2023-02-22T16:22:03.023Z,100160.00
2023-02-22T16:25:25.304Z,100169.19
2023-02-22T16:28:31.042Z,100174.81
2023-02-22T16:31:38.539Z,100171.25
2023-02-22T16:34:43.570Z,100173.06
2023-02-22T16:37:48.864Z,100172.50
2023-02-22T16:40:58.331Z,100166.81
2023-02-22T16:44:02.318Z,100176.78
2023-02-22T16:47:05.005Z,100184.41
2023-02-22T16:50:07.939Z,100175.84
2023-02-22T16:53:10.970Z,100175.88
2023-02-22T16:56:16.414Z,100176.19
2023-02-22T16:59:24.139Z,100185.72
2023-02-22T17:02:28.950Z,100191.47
2023-02-22T17:05:38.346Z,100188.63
2023-02-22T17:08:43.503Z,100190.22
2023-02-22T17:11:50.951Z,100179.69
2023-02-22T17:14:56.915Z,100186.22
2023-02-22T17:18:11.433Z,100200.91
2023-02-22T17:21:14.147Z,100186.09
2023-02-22T17:24:24.618Z,100188.66
2023-02-22T17:27:27.978Z,100196.25
2023-02-22T17:30:35.964Z,100210.34
2023-02-22T17:33:39.006Z,100206.91
2023-02-22T17:36:45.240Z,100202.03
2023-02-22T17:39:48.789Z,100208.13
2023-02-22T17:42:55.229Z,100202.41
2023-02-22T17:45:58.100Z,100205.69
2023-02-22T17:49:01.947Z,100205.50
2023-02-22T17:52:09.536Z,100213.81
2023-02-22T17:55:13.098Z,100206.91
2023-02-22T17:58:15.815Z,100187.56
2023-02-22T18:01:27.187Z,100205.47
2023-02-22T18:04:34.956Z,100201.41
2023-02-22T18:07:37.741Z,100195.09
2023-02-22T18:10:42.480Z,100193.03
2023-02-22T18:13:45.215Z,100201.56
2023-02-22T18:16:48.092Z,100199.09
2023-02-22T18:19:50.975Z,100204.28
2023-02-22T18:22:53.786Z,100192.34
2023-02-22T18:26:10.675Z,100184.97
2023-02-22T18:29:15.938Z,100192.16
2023-02-22T18:32:19.763Z,100177.94
2023-02-22T18:35:22.552Z,100189.03
2023-02-22T18:38:25.745Z,100190.69
2023-02-22T18:41:31.486Z,100174.13
2023-02-22T18:44:34.284Z,100193.84
2023-02-22T18:47:44.182Z,100184.47
2023-02-22T18:50:46.942Z,100196.56
2023-02-22T18:53:50.240Z,100194.69
2023-02-22T18:56:52.981Z,100193.88
2023-02-22T18:59:59.845Z,100195.66
2023-02-22T19:03:02.421Z,100189.09
2023-02-22T19:06:10.530Z,100196.88
2023-02-22T19:09:14.280Z,100203.06
2023-02-22T19:12:18.984Z,100191.63
2023-02-22T19:15:21.882Z,100199.41
2023-02-22T19:18:25.164Z,100189.16
2023-02-22T19:21:30.001Z,100202.91
2023-02-22T19:24:39.946Z,100205.41
2023-02-22T19:27:44.484Z,100198.06
2023-02-22T19:30:47.438Z,100201.16
2023-02-22T19:33:55.346Z,100203.53
2023-02-22T19:37:00.808Z,100192.91
2023-02-22T19:40:07.077Z,100200.66
2023-02-22T19:43:11.536Z,100190.84
2023-02-22T19:46:17.961Z,100199.25
2023-02-22T19:49:20.826Z,100195.81
2023-02-22T19:52:23.599Z,100197.38
2023-02-22T19:55:32.392Z,100195.56
2023-02-22T19:58:39.495Z,100198.56
2023-02-22T20:01:44.569Z,100206.47
2023-02-22T20:04:50.210Z,100204.38
2023-02-22T20:07:52.933Z,100208.03
2023-02-22T20:10:58.623Z,100197.59
2023-02-22T20:14:02.018Z,100203.75
2023-02-22T20:17:07.110Z,100202.84
2023-02-22T20:20:10.122Z,100200.03
2023-02-22T20:23:12.953Z,100206.31
2023-02-22T20:26:18.039Z,100209.16
2023-02-22T20:29:26.508Z,100200.44
2023-02-22T20:32:31.850Z,100203.78
2023-02-22T20:35:34.683Z,100200.59
2023-02-22T20:38:37.997Z,100203.34
2023-02-22T20:41:43.313Z,100213.88
2023-02-22T20:44:46.078Z,100215.41
2023-02-22T20:47:51.987Z,100215.75
2023-02-22T20:50:54.765Z,100208.13
2023-02-22T20:54:00.166Z,100202.00
2023-02-22T20:57:06.807Z,100210.97
2023-02-22T21:00:10.695Z,100207.69
2023-02-22T21:03:13.606Z,100217.78
2023-02-22T21:06:18.654Z,100213.75
2023-02-22T21:09:21.824Z,100221.25
2023-02-22T21:12:24.694Z,100194.53
2023-02-22T21:15:27.514Z,100224.38
2023-02-22T21:18:30.314Z,100220.09
2023-02-22T21:21:36.390Z,100223.72
2023-02-22T21:24:39.474Z,100226.91
2023-02-22T21:27:43.295Z,100210.28
2023-02-22T21:30:47.456Z,100220.50
2023-02-22T21:33:52.162Z,100219.25
2023-02-22T21:36:54.946Z,100213.78
2023-02-22T21:40:00.808Z,100216.09
2023-02-22T21:43:03.589Z,100205.84
2023-02-22T21:46:08.046Z,100217.16
2023-02-22T21:49:11.438Z,100222.34
2023-02-22T21:52:14.336Z,100218.06
2023-02-22T21:55:19.378Z,100221.69
2023-02-22T21:58:22.648Z,100224.03
2023-02-22T22:01:29.938Z,100218.91
2023-02-22T22:04:35.108Z,100221.88
2023-02-22T22:07:37.650Z,100224.44
2023-02-22T22:10:40.255Z,100223.72
2023-02-22T22:13:46.124Z,100218.53
2023-02-22T22:16:59.550Z,100216.50
2023-02-22T22:20:04.610Z,100216.56
2023-02-22T22:23:10.031Z,100222.75
2023-02-22T22:26:14.566Z,100187.16
2023-02-22T22:29:18.771Z,100220.69
2023-02-22T22:32:21.681Z,100219.88
2023-02-22T22:35:29.699Z,100207.50
2023-02-22T22:38:33.592Z,100222.75
2023-02-22T22:41:36.658Z,100217.38
2023-02-22T22:44:42.374Z,100227.75
2023-02-22T22:47:46.186Z,100224.16
2023-02-22T22:51:06.699Z,100228.25
2023-02-22T22:54:10.488Z,100230.69
2023-02-22T22:57:13.264Z,100227.69
2023-02-22T23:00:31.308Z,100231.41
2023-02-22T23:03:36.985Z,100229.03
2023-02-22T23:06:55.225Z,100233.50
2023-02-22T23:09:57.879Z,100235.78
2023-02-22T23:13:00.412Z,100218.59
2023-02-22T23:16:03.169Z,100227.88
2023-02-22T23:19:08.077Z,100241.81
2023-02-22T23:22:17.630Z,100242.66
2023-02-22T23:25:21.906Z,100242.00
2023-02-22T23:28:24.537Z,100231.72
2023-02-22T23:31:32.105Z,100239.59
2023-02-22T23:34:36.058Z,100233.25
2023-02-22T23:37:39.982Z,100224.41
2023-02-22T23:40:44.857Z,100233.41
2023-02-22T23:43:47.487Z,100231.63
2023-02-22T23:46:55.491Z,100219.50
2023-02-22T23:49:59.073Z,100217.34
2023-02-22T23:53:03.811Z,100221.31
2023-02-22T23:56:17.959Z,100221.47
2023-02-22T23:59:20.534Z,100226.06
